Time;durP1;ratioP1;P1;durP2;ratioP2;P2;SDS_P1;SDS_P2;PMS_P1;PMS_P2;Temp;Humidity;BMP_temperature;BMP_pressure;BME280_temperature;BME280_humidity;BME280_pressure;Samples;Min_cycle;Max_cycle;Signal;HPM_P1;HPM_P2
2022/09/02 00:01:50;;;;;;;1.75;1.27;;;14.00;99.90;;;;;;5135436;28;20029;-87
2022/09/02 00:04:27;;;;;;;1.33;1.15;;;14.00;99.90;;;;;;5198656;28;20047;-87
2022/09/02 00:07:06;;;;;;;1.25;1.15;;;13.90;99.90;;;;;;5198971;28;20055;-86
2022/09/02 00:09:43;;;;;;;1.23;1.15;;;13.90;99.90;;;;;;5214379;28;20045;-86
2022/09/02 00:12:15;;;;;;;2.15;1.10;;;13.90;99.90;;;;;;5181014;28;20040;-86
2022/09/02 00:14:51;;;;;;;1.05;1.00;;;13.80;99.90;;;;;;5156856;28;20045;-87
2022/09/02 00:17:22;;;;;;;0.90;0.90;;;13.80;99.90;;;;;;5198145;28;20592;-87
2022/09/02 00:19:56;;;;;;;0.93;0.93;;;13.80;99.90;;;;;;5177936;28;20051;-86
2022/09/02 00:22:52;;;;;;;1.35;1.27;;;13.80;99.90;;;;;;5187921;28;20390;-87
2022/09/02 00:25:26;;;;;;;1.38;1.27;;;13.70;99.90;;;;;;5161052;28;20387;-87
2022/09/02 00:28:03;;;;;;;2.75;1.35;;;13.60;99.90;;;;;;5171597;28;20037;-88
2022/09/02 00:30:34;;;;;;;1.00;1.00;;;13.60;99.90;;;;;;5188676;28;20053;-88
2022/09/02 00:33:09;;;;;;;1.30;1.20;;;13.60;99.90;;;;;;5174317;28;20056;-88
2022/09/02 00:35:43;;;;;;;1.50;1.40;;;13.60;99.90;;;;;;5155120;28;20048;-89
2022/09/02 00:38:17;;;;;;;1.10;1.00;;;13.70;99.90;;;;;;5171170;28;20063;-88
2022/09/02 00:40:49;;;;;;;2.00;1.30;;;13.70;99.90;;;;;;5171654;28;20062;-88
2022/09/02 00:43:39;;;;;;;2.53;1.30;;;13.60;99.90;;;;;;5170998;28;20046;-87
2022/09/02 00:46:17;;;;;;;1.42;1.20;;;13.50;99.90;;;;;;5183561;28;20035;-88
2022/09/02 00:49:26;;;;;;;1.20;1.10;;;13.50;99.90;;;;;;5165238;28;20038;-86
2022/09/02 00:52:09;;;;;;;1.27;1.17;;;13.50;99.90;;;;;;5165290;28;20423;-86
2022/09/02 00:55:02;;;;;;;1.20;1.08;;;13.50;99.90;;;;;;5173691;28;20054;-86
2022/09/02 00:57:45;;;;;;;2.13;1.40;;;13.50;99.90;;;;;;5192259;28;20034;-86
2022/09/02 01:00:27;;;;;;;1.67;1.42;;;13.50;99.90;;;;;;5199668;28;20314;-87
2022/09/02 01:03:12;;;;;;;2.40;1.20;;;13.40;99.90;;;;;;5199627;28;20502;-90
2022/09/02 01:05:48;;;;;;;3.80;1.10;;;13.50;99.90;;;;;;5170895;28;20049;-87
2022/09/02 01:08:25;;;;;;;1.45;1.35;;;13.50;99.90;;;;;;5142179;28;20037;-87
2022/09/02 01:11:04;;;;;;;1.35;1.25;;;13.40;99.90;;;;;;5209473;28;20043;-87
2022/09/02 01:13:44;;;;;;;1.48;1.20;;;13.40;99.90;;;;;;5184182;28;20033;-88
2022/09/02 01:16:37;;;;;;;1.30;1.20;;;13.50;99.90;;;;;;5172795;28;20044;-88
2022/09/02 01:19:44;;;;;;;1.10;1.10;;;13.50;99.90;;;;;;5141028;28;20046;-88
2022/09/02 01:22:26;;;;;;;1.50;1.40;;;13.50;99.90;;;;;;5168752;28;20041;-88
2022/09/02 01:25:12;;;;;;;1.27;1.17;;;13.40;99.90;;;;;;5193320;28;20563;-88
2022/09/02 01:27:47;;;;;;;2.55;1.50;;;13.40;99.90;;;;;;5203058;28;20487;-87
2022/09/02 01:30:24;;;;;;;1.30;1.20;;;13.40;99.90;;;;;;5190194;28;20056;-87
2022/09/02 01:32:56;;;;;;;1.55;1.45;;;13.50;99.90;;;;;;5173479;28;20046;-88
2022/09/02 01:35:32;;;;;;;2.03;1.23;;;13.50;99.90;;;;;;5160057;28;20042;-87
2022/09/02 01:38:07;;;;;;;2.80;1.23;;;13.50;99.90;;;;;;5177930;28;20041;-87
2022/09/02 01:40:40;;;;;;;1.52;1.42;;;13.50;99.90;;;;;;5193268;28;20037;-87
2022/09/02 01:43:21;;;;;;;1.63;1.38;;;13.50;99.90;;;;;;5192575;28;20395;-87
2022/09/02 01:46:00;;;;;;;2.10;1.30;;;13.50;99.90;;;;;;5176062;28;20037;-87
2022/09/02 01:48:34;;;;;;;1.50;1.40;;;13.40;99.90;;;;;;5193328;28;20034;-88
2022/09/02 01:51:19;;;;;;;3.25;1.33;;;13.40;99.90;;;;;;5192727;28;20029;-88
2022/09/02 01:53:54;;;;;;;2.92;1.35;;;13.40;99.90;;;;;;5176175;28;20461;-87
2022/09/02 01:56:25;;;;;;;;;;;13.40;99.90;;;;;;5193196;28;20029;-88
2022/09/02 01:59:06;;;;;;;3.95;1.50;;;13.40;99.90;;;;;;5139848;28;19923;-88
2022/09/02 02:01:40;;;;;;;3.38;1.13;;;13.40;99.90;;;;;;5177329;28;20047;-89
2022/09/02 02:04:17;;;;;;;1.98;1.30;;;13.40;99.90;;;;;;5163439;28;20063;-87
2022/09/02 02:06:51;;;;;;;1.48;1.38;;;13.40;99.90;;;;;;5174129;28;20069;-86
2022/09/02 02:09:23;;;;;;;2.75;1.65;;;13.50;99.90;;;;;;5183977;28;20063;-87
2022/09/02 02:12:00;;;;;;;4.50;1.35;;;13.40;99.90;;;;;;5198664;28;20037;-87
2022/09/02 02:14:37;;;;;;;1.20;1.10;;;13.40;99.90;;;;;;5220794;28;20037;-87
2022/09/02 02:17:11;;;;;;;1.42;1.30;;;13.20;99.90;;;;;;5200029;28;20037;-87
2022/09/02 02:19:46;;;;;;;;;;;13.20;99.90;;;;;;5233025;28;20043;-87
2022/09/02 02:22:20;;;;;;;2.20;1.20;;;13.20;99.90;;;;;;5196941;28;19931;-88
2022/09/02 02:24:53;;;;;;;1.80;1.27;;;13.20;99.90;;;;;;5200709;28;20039;-87
2022/09/02 02:27:27;;;;;;;1.35;1.25;;;13.10;99.90;;;;;;5183320;28;20033;-87
2022/09/02 02:30:05;;;;;;;3.70;1.55;;;13.00;99.90;;;;;;5191774;28;20421;-88
2022/09/02 02:32:41;;;;;;;2.50;1.50;;;13.00;99.90;;;;;;5185515;28;20041;-88
2022/09/02 02:35:20;;;;;;;1.50;1.38;;;13.10;99.90;;;;;;5217012;28;20037;-88
2022/09/02 02:37:55;;;;;;;1.60;1.50;;;13.00;99.90;;;;;;5216254;28;20053;-88
2022/09/02 02:40:29;;;;;;;1.88;1.33;;;13.00;99.90;;;;;;5215384;28;20068;-87
2022/09/02 02:43:04;;;;;;;2.00;1.48;;;13.00;99.90;;;;;;5215711;28;20044;-87
2022/09/02 02:45:36;;;;;;;1.70;1.35;;;13.00;99.90;;;;;;5184299;28;20045;-88
2022/09/02 02:48:07;;;;;;;1.20;1.10;;;13.00;99.90;;;;;;5181408;28;20053;-87
2022/09/02 02:50:42;;;;;;;5.72;1.50;;;13.00;99.90;;;;;;5194827;28;20041;-87
2022/09/02 02:53:16;;;;;;;1.60;1.50;;;12.90;99.90;;;;;;5192417;28;20053;-87
2022/09/02 02:55:53;;;;;;;1.50;1.40;;;12.90;99.90;;;;;;5196968;28;20669;-87
2022/09/02 02:58:28;;;;;;;2.22;1.50;;;12.90;99.90;;;;;;5186878;28;20033;-87
2022/09/02 03:01:04;;;;;;;1.30;1.20;;;12.90;99.90;;;;;;5212240;28;20041;-88
2022/09/02 03:03:42;;;;;;;2.05;1.92;;;12.90;99.90;;;;;;5198185;28;20499;-88
2022/09/02 03:06:14;;;;;;;1.38;1.27;;;12.80;99.90;;;;;;5189663;28;20491;-87
2022/09/02 03:08:49;;;;;;;1.70;1.60;;;12.80;99.90;;;;;;5200847;28;20460;-87
2022/09/02 03:11:21;;;;;;;1.45;1.35;;;12.80;99.90;;;;;;5198401;28;20041;-89
2022/09/02 03:13:54;;;;;;;2.95;1.50;;;12.80;99.90;;;;;;5212597;28;20474;-87
2022/09/02 03:16:29;;;;;;;3.28;1.40;;;12.70;99.90;;;;;;5195366;28;20056;-87
2022/09/02 03:19:12;;;;;;;1.58;1.48;;;12.70;99.90;;;;;;5195948;28;20499;-88
2022/09/02 03:21:45;;;;;;;1.30;1.20;;;12.70;99.90;;;;;;5179314;28;20037;-87
2022/09/02 03:24:23;;;;;;;1.40;1.30;;;12.70;99.90;;;;;;5231407;28;20036;-88
2022/09/02 03:26:59;;;;;;;2.33;1.58;;;12.70;99.90;;;;;;5215422;28;20021;-87
2022/09/02 03:29:33;;;;;;;1.40;1.30;;;12.70;99.90;;;;;;5194644;28;20037;-88
2022/09/02 03:32:07;;;;;;;1.70;1.48;;;12.70;99.90;;;;;;5197436;28;20476;-87
2022/09/02 03:34:42;;;;;;;3.38;1.80;;;12.60;99.90;;;;;;5212043;28;20033;-87
2022/09/02 03:37:14;;;;;;;1.65;1.55;;;12.60;99.90;;;;;;5214367;28;20041;-88
2022/09/02 03:39:51;;;;;;;1.83;1.33;;;12.60;99.90;;;;;;5198425;28;20033;-87
2022/09/02 03:42:22;;;;;;;2.22;1.10;;;12.60;99.90;;;;;;5196345;28;20045;-87
2022/09/02 03:44:57;;;;;;;1.42;1.33;;;12.50;99.90;;;;;;5187433;28;20047;-86
2022/09/02 03:47:31;;;;;;;1.50;1.40;;;12.60;99.90;;;;;;5174208;28;20036;-87
2022/09/02 03:50:05;;;;;;;1.70;1.60;;;12.50;99.90;;;;;;5213883;28;20033;-86
2022/09/02 03:52:39;;;;;;;1.60;1.50;;;12.50;99.90;;;;;;5202069;28;20496;-86
2022/09/02 03:55:13;;;;;;;1.23;1.13;;;12.50;99.90;;;;;;5185861;28;20039;-88
2022/09/02 03:57:49;;;;;;;3.15;1.60;;;12.50;99.90;;;;;;5194158;28;20033;-88
2022/09/02 04:00:25;;;;;;;2.00;1.27;;;12.50;99.90;;;;;;5194446;28;20034;-87
2022/09/02 04:03:00;;;;;;;1.65;1.52;;;12.40;99.90;;;;;;5186553;28;20041;-86
2022/09/02 04:05:34;;;;;;;1.60;1.50;;;12.40;99.90;;;;;;5183328;28;20056;-88
2022/09/02 04:08:06;;;;;;;4.07;1.55;;;12.40;99.90;;;;;;5173290;28;20043;-88
2022/09/02 04:10:39;;;;;;;1.77;1.50;;;12.50;99.90;;;;;;5177440;28;20045;-88
2022/09/02 04:13:16;;;;;;;2.03;1.67;;;12.40;99.90;;;;;;5190486;28;20060;-86
2022/09/02 04:15:51;;;;;;;3.33;1.65;;;12.50;99.90;;;;;;5175137;28;20033;-87
2022/09/02 04:18:37;;;;;;;2.45;1.40;;;12.40;99.90;;;;;;5190791;28;20034;-87
2022/09/02 04:21:12;;;;;;;5.35;1.67;;;12.40;99.90;;;;;;5173591;28;20033;-87
2022/09/02 04:23:51;;;;;;;2.47;1.60;;;12.40;99.90;;;;;;5183648;28;20041;-87
2022/09/02 04:26:25;;;;;;;1.30;1.20;;;12.40;99.90;;;;;;5190906;28;20395;-88
2022/09/02 04:29:05;;;;;;;1.92;1.70;;;12.30;99.90;;;;;;5190029;28;20038;-87
2022/09/02 04:31:41;;;;;;;1.50;1.40;;;12.40;99.90;;;;;;5193517;28;20040;-86
2022/09/02 04:34:13;;;;;;;2.88;1.88;;;12.30;99.90;;;;;;5176474;28;20055;-87
2022/09/02 04:36:47;;;;;;;1.85;1.35;;;12.30;99.90;;;;;;5192733;28;20047;-88
2022/09/02 04:39:23;;;;;;;2.15;1.67;;;12.20;99.90;;;;;;5198553;28;20057;-86
2022/09/02 04:41:55;;;;;;;1.75;1.65;;;12.20;99.90;;;;;;5193677;28;20051;-86
2022/09/02 04:44:27;;;;;;;1.85;1.50;;;12.20;99.90;;;;;;5192975;28;20034;-87
2022/09/02 04:47:01;;;;;;;1.33;1.20;;;12.30;99.90;;;;;;5176471;28;20045;-87
2022/09/02 04:49:33;;;;;;;1.88;1.63;;;12.30;99.90;;;;;;5157124;28;20051;-87
2022/09/02 04:52:09;;;;;;;3.00;1.48;;;12.40;99.90;;;;;;5164410;28;20044;-86
2022/09/02 04:54:43;;;;;;;1.60;1.50;;;12.50;99.90;;;;;;5190759;28;20037;-87
2022/09/02 04:57:16;;;;;;;1.67;1.58;;;12.60;99.90;;;;;;5186211;28;20391;-87
2022/09/02 04:59:50;;;;;;;2.20;1.52;;;12.70;99.90;;;;;;5160946;28;20468;-87
2022/09/02 05:02:21;;;;;;;1.63;1.52;;;12.80;99.90;;;;;;5177207;28;20055;-87
2022/09/02 05:04:57;;;;;;;2.88;1.77;;;12.80;99.90;;;;;;5183233;28;20069;-87
2022/09/02 05:07:29;;;;;;;2.72;1.55;;;13.00;99.90;;;;;;5193158;28;20051;-87
2022/09/02 05:10:07;;;;;;;1.70;1.60;;;13.10;99.90;;;;;;5179687;28;20043;-86
2022/09/02 05:12:39;;;;;;;2.25;1.50;;;13.20;99.90;;;;;;5211314;28;20051;-86
2022/09/02 05:15:16;;;;;;;6.55;1.70;;;13.30;99.90;;;;;;5195270;28;20048;-87
2022/09/02 05:17:47;;;;;;;1.73;1.60;;;13.30;99.90;;;;;;5210283;28;20450;-88
2022/09/02 05:20:19;;;;;;;3.70;1.67;;;13.40;99.90;;;;;;5212083;28;20041;-87
2022/09/02 05:22:53;;;;;;;2.33;1.40;;;13.50;99.90;;;;;;5183871;28;20024;-88
2022/09/02 05:25:29;;;;;;;1.80;1.70;;;13.50;99.90;;;;;;5192759;28;20040;-86
2022/09/02 05:28:08;;;;;;;1.42;1.33;;;13.60;99.90;;;;;;5206826;28;20041;-87
2022/09/02 05:30:44;;;;;;;3.17;1.58;;;13.70;99.90;;;;;;5192666;28;20041;-87
2022/09/02 05:33:18;;;;;;;1.73;1.63;;;13.70;99.90;;;;;;5217322;28;20043;-86
2022/09/02 05:35:55;;;;;;;1.73;1.63;;;13.80;99.90;;;;;;5181085;28;20041;-87
2022/09/02 05:38:30;;;;;;;1.38;1.27;;;13.80;99.90;;;;;;5216873;28;20049;-86
2022/09/02 05:41:18;;;;;;;1.70;1.60;;;13.80;99.90;;;;;;5216926;28;20043;-88
2022/09/02 05:43:56;;;;;;;1.60;1.50;;;13.90;99.90;;;;;;5197769;28;20034;-87
2022/09/02 05:46:32;;;;;;;2.03;1.60;;;13.90;99.90;;;;;;5206789;28;20061;-87
2022/09/02 05:49:16;;;;;;;1.52;1.30;;;14.00;99.90;;;;;;5199875;28;20041;-87
2022/09/02 05:51:57;;;;;;;1.88;1.77;;;14.00;99.90;;;;;;5189217;28;20029;-87
2022/09/02 05:54:37;;;;;;;3.15;1.73;;;14.00;99.90;;;;;;5199720;28;20051;-89
2022/09/02 05:57:12;;;;;;;2.58;1.42;;;14.00;99.90;;;;;;5200558;28;20035;-88
2022/09/02 05:59:45;;;;;;;3.70;1.50;;;14.00;99.90;;;;;;5200220;28;20345;-88
2022/09/02 06:02:19;;;;;;;1.40;1.30;;;14.00;99.90;;;;;;5216449;28;20051;-87
2022/09/02 06:04:53;;;;;;;;;;;14.00;99.90;;;;;;5190864;28;20053;-87
2022/09/02 06:07:27;;;;;;;1.67;1.58;;;14.20;99.90;;;;;;5194468;28;19916;-88
2022/09/02 06:10:05;;;;;;;2.17;1.85;;;14.30;99.90;;;;;;5179298;28;20041;-88
2022/09/02 06:12:38;;;;;;;2.65;1.83;;;14.20;99.90;;;;;;5183347;28;20049;-88
2022/09/02 06:15:19;;;;;;;1.65;1.55;;;14.40;99.90;;;;;;5382230;22;20007;-66
2022/09/02 06:17:58;;;;;;;1.67;1.58;;;14.40;99.90;;;;;;5194697;28;20053;-64
2022/09/02 06:20:37;;;;;;;1.50;1.40;;;14.40;99.90;;;;;;5192558;28;20047;-62
2022/09/02 06:23:14;;;;;;;3.50;1.70;;;14.50;99.90;;;;;;5195099;28;20024;-62
2022/09/02 06:25:49;;;;;;;2.03;1.58;;;14.50;99.90;;;;;;5201174;28;20036;-63
2022/09/02 06:28:27;;;;;;;2.75;1.77;;;14.60;99.90;;;;;;5183816;28;20058;-62
2022/09/02 06:31:01;;;;;;;3.45;1.67;;;14.70;99.90;;;;;;5198471;28;20045;-62
2022/09/02 06:33:35;;;;;;;2.05;1.75;;;14.60;99.90;;;;;;5210420;28;20046;-64
2022/09/02 06:36:16;;;;;;;4.05;1.77;;;14.60;99.90;;;;;;5209298;28;20036;-63
2022/09/02 06:38:51;;;;;;;1.85;1.52;;;14.80;99.90;;;;;;5190590;28;20033;-63
2022/09/02 06:41:32;;;;;;;2.40;1.50;;;14.80;99.90;;;;;;5225338;28;20537;-64
2022/09/02 06:44:14;;;;;;;3.28;1.60;;;14.90;99.90;;;;;;5222965;28;20045;-63
2022/09/02 06:46:57;;;;;;;3.97;1.40;;;15.10;99.90;;;;;;5210156;28;20048;-63
2022/09/02 06:49:36;;;;;;;4.28;1.52;;;15.10;99.90;;;;;;5223107;28;20129;-63
2022/09/02 06:52:07;;;;;;;1.85;1.60;;;15.20;99.90;;;;;;5186449;28;20340;-64
2022/09/02 06:54:44;;;;;;;1.45;1.35;;;15.10;99.90;;;;;;5179713;28;20041;-65
2022/09/02 06:57:18;;;;;;;3.58;1.77;;;15.40;99.90;;;;;;5199722;28;20555;-64
2022/09/02 07:00:00;;;;;;;2.65;1.55;;;15.40;99.90;;;;;;5199945;28;20040;-64
2022/09/02 07:02:40;;;;;;;1.73;1.50;;;15.50;99.90;;;;;;5191801;28;20159;-64
2022/09/02 07:05:19;;;;;;;2.03;1.75;;;15.60;99.90;;;;;;5171009;28;20246;-63
2022/09/02 07:07:54;;;;;;;4.18;1.50;;;15.50;99.90;;;;;;5147902;28;20037;-62
2022/09/02 07:10:32;;;;;;;3.30;1.70;;;15.70;99.90;;;;;;5167272;28;20355;-61
2022/09/02 07:13:13;;;;;;;2.03;1.80;;;15.70;99.90;;;;;;5199976;28;20039;-61
2022/09/02 07:15:53;;;;;;;2.60;1.50;;;15.80;99.90;;;;;;5198074;28;20060;-62
2022/09/02 07:18:33;;;;;;;1.50;1.38;;;15.90;99.90;;;;;;5167769;28;20043;-63
2022/09/02 07:21:11;;;;;;;2.22;1.67;;;15.90;99.90;;;;;;5179615;28;20041;-63
2022/09/02 07:23:47;;;;;;;1.45;1.35;;;16.10;99.90;;;;;;5183310;28;20033;-63
2022/09/02 07:26:27;;;;;;;3.15;1.50;;;16.30;99.90;;;;;;5179491;28;20472;-63
2022/09/02 07:29:02;;;;;;;1.58;1.42;;;16.40;99.90;;;;;;5159856;28;20455;-63
2022/09/02 07:31:50;;;;;;;1.42;1.33;;;16.20;99.90;;;;;;5199707;28;20033;-62
2022/09/02 07:34:30;;;;;;;1.50;1.40;;;16.40;99.90;;;;;;5216779;28;20037;-63
2022/09/02 07:37:07;;;;;;;1.70;1.33;;;16.70;99.90;;;;;;5217697;28;20039;-62
2022/09/02 07:39:44;;;;;;;1.30;1.20;;;17.00;99.90;;;;;;5183797;28;20345;-63
2022/09/02 07:42:21;;;;;;;2.25;1.13;;;17.30;99.90;;;;;;5181199;28;20350;-63
2022/09/02 07:45:00;;;;;;;1.70;1.23;;;16.80;99.90;;;;;;5182157;28;20043;-63
2022/09/02 07:47:32;;;;;;;1.77;1.35;;;17.10;99.90;;;;;;5216481;28;20032;-65
2022/09/02 07:50:07;;;;;;;1.60;1.50;;;17.20;99.90;;;;;;5186357;28;20341;-65
2022/09/02 07:52:41;;;;;;;1.35;1.25;;;17.20;99.90;;;;;;5199909;28;20430;-64
2022/09/02 07:55:21;;;;;;;2.30;1.52;;;17.30;99.90;;;;;;5191105;28;20232;-64
2022/09/02 07:58:04;;;;;;;2.17;1.20;;;17.30;99.90;;;;;;5200195;28;20344;-65
2022/09/02 08:00:41;;;;;;;2.40;1.40;;;17.40;99.90;;;;;;5197062;28;20039;-65
2022/09/02 08:03:18;;;;;;;1.33;1.00;;;17.80;99.90;;;;;;5198711;28;20033;-64
2022/09/02 08:05:53;;;;;;;2.75;1.35;;;18.20;99.90;;;;;;5173186;28;20059;-62
2022/09/02 08:08:29;;;;;;;1.42;1.33;;;18.20;99.90;;;;;;5191434;28;20329;-64
2022/09/02 08:11:09;;;;;;;2.50;1.27;;;18.30;99.90;;;;;;5187407;28;20048;-64
2022/09/02 08:13:53;;;;;;;4.47;1.30;;;18.20;99.90;;;;;;5178123;28;20232;-65
2022/09/02 08:16:28;;;;;;;1.95;1.17;;;18.40;99.90;;;;;;5210864;28;20037;-64
2022/09/02 08:19:04;;;;;;;1.77;1.30;;;19.20;99.90;;;;;;5172299;28;20047;-64
2022/09/02 08:21:38;;;;;;;5.95;1.58;;;19.30;99.90;;;;;;5190306;28;20029;-64
2022/09/02 08:24:15;;;;;;;2.03;1.40;;;19.40;99.90;;;;;;5178447;28;20524;-64
2022/09/02 08:26:52;;;;;;;1.40;1.30;;;20.00;99.90;;;;;;5196235;28;20040;-64
2022/09/02 08:29:30;;;;;;;3.80;1.52;;;20.00;99.90;;;;;;5177193;28;20051;-66
2022/09/02 08:32:05;;;;;;;1.67;1.20;;;20.30;99.90;;;;;;5193895;28;20044;-64
2022/09/02 08:34:42;;;;;;;4.03;1.13;;;21.50;99.90;;;;;;5184555;28;20038;-64
2022/09/02 08:37:18;;;;;;;1.45;1.10;;;21.90;99.90;;;;;;5183857;28;20307;-64
2022/09/02 08:39:52;;;;;;;2.30;1.27;;;22.60;99.90;;;;;;5160927;28;20044;-65
2022/09/02 08:42:37;;;;;;;1.40;1.20;;;21.70;99.90;;;;;;5194921;28;20043;-65
2022/09/02 08:45:19;;;;;;;1.25;1.15;;;20.60;99.90;;;;;;5190223;28;20044;-66
2022/09/02 08:48:21;;;;;;;1.83;1.20;;;21.00;99.90;;;;;;5177687;28;20067;-64
2022/09/02 08:51:09;;;;;;;2.58;1.00;;;21.00;99.90;;;;;;5162071;28;20324;-65
2022/09/02 08:54:31;;;;;;;3.50;1.05;;;22.20;99.90;;;;;;5182357;28;20242;-64
2022/09/02 08:57:12;;;;;;;1.60;1.10;;;23.20;99.90;;;;;;5134688;28;20045;-66
2022/09/02 08:59:49;;;;;;;2.63;1.65;;;22.70;99.90;;;;;;5178493;28;20282;-65
2022/09/02 09:02:56;;;;;;;1.38;1.25;;;23.40;99.90;;;;;;5193567;28;20025;-64
2022/09/02 09:06:04;;;;;;;1.13;1.02;;;23.60;99.90;;;;;;5183276;28;20049;-66
2022/09/02 09:09:20;;;;;;;1.50;1.08;;;23.60;99.90;;;;;;5187563;28;20049;-64
2022/09/02 09:12:27;;;;;;;1.30;1.20;;;23.30;99.90;;;;;;5177454;28;20061;-66
2022/09/02 09:15:15;;;;;;;3.45;2.13;;;22.80;99.90;;;;;;5161964;28;20532;-64
2022/09/02 09:18:10;;;;;;;1.33;1.15;;;22.80;99.90;;;;;;5200499;28;20558;-64
2022/09/02 09:20:48;;;;;;;1.48;1.23;;;23.10;99.90;;;;;;5192321;28;20041;-64
2022/09/02 09:23:41;;;;;;;0.90;0.80;;;23.30;99.90;;;;;;5181529;28;20041;-64
2022/09/02 09:26:16;;;;;;;3.22;1.15;;;23.30;99.90;;;;;;5195488;28;20042;-64
2022/09/02 09:28:52;;;;;;;2.47;1.10;;;23.40;99.90;;;;;;5193031;28;20033;-64
2022/09/02 09:31:31;;;;;;;6.65;1.45;;;23.60;99.90;;;;;;5180609;28;20057;-65
2022/09/02 09:34:08;;;;;;;1.00;0.90;;;23.60;99.90;;;;;;5194425;28;20072;-63
2022/09/02 09:36:39;;;;;;;1.27;1.17;;;23.50;99.90;;;;;;5189047;28;20049;-63
2022/09/02 09:39:35;;;;;;;0.98;0.90;;;23.40;99.90;;;;;;5184389;28;20223;-63
2022/09/02 09:42:32;;;;;;;1.20;1.00;;;23.60;99.90;;;;;;5195349;28;20056;-65
2022/09/02 09:45:37;;;;;;;1.33;1.10;;;23.60;99.90;;;;;;5186893;28;20334;-65
2022/09/02 09:48:29;;;;;;;1.23;1.10;;;23.70;99.90;;;;;;5200354;28;20044;-65
2022/09/02 09:51:08;;;;;;;1.55;0.90;;;24.30;99.90;;;;;;5181466;28;20049;-65
2022/09/02 09:53:43;;;;;;;1.00;1.00;;;24.50;99.90;;;;;;5196945;28;20053;-65
2022/09/02 09:56:14;;;;;;;0.98;0.80;;;24.80;99.90;;;;;;5198807;28;20053;-64
2022/09/02 09:58:52;;;;;;;1.13;1.02;;;24.90;99.90;;;;;;5199720;28;20329;-64
2022/09/02 10:01:33;;;;;;;1.05;0.90;;;25.00;99.90;;;;;;5198670;28;20357;-64
2022/09/02 10:04:32;;;;;;;1.58;0.82;;;25.00;99.90;;;;;;5165453;28;20056;-64
2022/09/02 10:07:10;;;;;;;1.83;1.17;;;25.70;99.90;;;;;;5175104;28;20067;-65
2022/09/02 10:09:45;;;;;;;1.25;1.15;;;25.80;99.90;;;;;;5184482;28;20227;-64
2022/09/02 10:12:34;;;;;;;2.60;1.17;;;26.00;99.90;;;;;;5201225;28;20025;-63
2022/09/02 10:15:09;;;;;;;2.92;1.30;;;26.10;99.90;;;;;;5185411;28;20378;-63
2022/09/02 10:18:29;;;;;;;1.30;1.20;;;26.50;99.90;;;;;;5185200;28;20372;-65
2022/09/02 10:21:18;;;;;;;1.50;1.17;;;26.90;99.90;;;;;;5184650;28;20045;-63
2022/09/02 10:23:58;;;;;;;1.17;0.90;;;27.60;99.90;;;;;;5201233;28;20337;-64
2022/09/02 10:27:03;;;;;;;2.00;1.05;;;27.80;99.90;;;;;;5219633;28;20029;-64
2022/09/02 10:29:54;;;;;;;4.28;1.45;;;27.30;99.90;;;;;;5202305;28;20040;-64
2022/09/02 10:32:37;;;;;;;1.70;1.05;;;28.00;99.90;;;;;;5213792;28;20312;-64
2022/09/02 10:35:47;;;;;;;1.15;0.90;;;28.40;99.90;;;;;;5214020;28;20063;-67
2022/09/02 10:38:49;;;;;;;2.92;1.10;;;28.50;99.90;;;;;;5199612;28;20280;-64
2022/09/02 10:41:47;;;;;;;2.35;1.00;;;28.20;99.90;;;;;;5200948;28;20029;-64
2022/09/02 10:44:33;;;;;;;1.90;1.20;;;29.90;99.90;;;;;;5200461;28;20248;-64
2022/09/02 10:47:55;;;;;;;1.70;1.02;;;31.10;99.90;;;;;;5184694;28;20053;-65
2022/09/02 10:50:39;;;;;;;2.50;1.00;;;31.10;99.90;;;;;;5182935;28;20048;-64
2022/09/02 10:53:31;;;;;;;1.30;0.90;;;30.00;99.90;;;;;;5218820;28;20036;-64
2022/09/02 10:56:15;;;;;;;2.05;1.00;;;29.80;99.90;;;;;;5200068;28;20055;-64
2022/09/02 10:59:22;;;;;;;1.67;1.00;;;30.80;99.90;;;;;;5201662;28;20064;-63
2022/09/02 11:02:22;;;;;;;3.20;1.27;;;31.70;99.90;;;;;;5191913;28;20045;-64
2022/09/02 11:05:41;;;;;;;3.13;0.85;;;32.90;99.90;;;;;;5201415;28;20146;-64
2022/09/02 11:08:19;;;;;;;1.08;0.98;;;33.30;99.90;;;;;;5152491;28;20096;-64
2022/09/02 11:11:20;;;;;;;1.00;1.00;;;33.30;99.90;;;;;;5214118;28;20332;-64
2022/09/02 11:13:57;;;;;;;2.28;1.02;;;33.70;99.00;;;;;;5214313;28;20043;-64
2022/09/02 11:17:01;;;;;;;1.42;1.25;;;33.20;98.00;;;;;;5210784;28;20344;-64
2022/09/02 11:20:14;;;;;;;1.55;0.90;;;32.40;97.90;;;;;;5209425;28;20068;-64
2022/09/02 11:23:14;;;;;;;1.58;1.20;;;32.80;98.30;;;;;;5185461;28;20041;-64
2022/09/02 11:25:59;;;;;;;1.10;1.00;;;33.50;98.00;;;;;;5213063;28;20043;-64
2022/09/02 11:29:04;;;;;;;1.45;1.10;;;34.20;96.60;;;;;;5194010;28;20452;-64
2022/09/02 11:32:07;;;;;;;0.90;0.90;;;32.80;97.20;;;;;;5195655;28;20020;-64
2022/09/02 11:34:53;;;;;;;2.00;1.13;;;32.80;97.00;;;;;;5193055;28;20033;-64
2022/09/02 11:37:30;;;;;;;1.90;0.98;;;32.50;96.70;;;;;;5194777;28;20059;-64
2022/09/02 11:40:12;;;;;;;1.30;1.05;;;32.10;97.40;;;;;;5210832;28;20047;-63
2022/09/02 11:43:31;;;;;;;3.15;0.85;;;31.20;96.20;;;;;;5181535;28;20420;-63
2022/09/02 11:46:35;;;;;;;1.10;0.85;;;31.80;98.10;;;;;;5168854;28;20048;-63
2022/09/02 11:49:43;;;;;;;1.10;1.00;;;33.50;95.40;;;;;;5215171;28;20383;-63
2022/09/02 11:52:56;;;;;;;2.28;1.08;;;31.90;95.00;;;;;;5214923;28;20233;-64
2022/09/02 11:55:41;;;;;;;0.80;0.80;;;32.80;97.00;;;;;;5209743;28;20055;-63
2022/09/02 11:58:46;;;;;;;1.80;1.00;;;32.60;96.20;;;;;;5181419;28;20328;-64
2022/09/02 12:01:34;;;;;;;1.08;1.00;;;33.30;95.90;;;;;;5181360;28;20262;-65
2022/09/02 12:04:28;;;;;;;1.63;1.02;;;34.20;94.40;;;;;;5215515;28;20286;-64
2022/09/02 12:07:05;;;;;;;1.30;0.98;;;33.90;94.70;;;;;;5171055;28;20053;-64
2022/09/02 12:09:57;;;;;;;1.10;1.00;;;34.50;93.40;;;;;;5213002;28;20044;-65
2022/09/02 12:12:41;;;;;;;1.58;1.00;;;34.70;93.30;;;;;;5165193;28;20032;-65
2022/09/02 12:15:20;;;;;;;1.88;1.10;;;34.90;92.80;;;;;;5215245;28;20043;-65
2022/09/02 12:17:52;;;;;;;1.15;1.02;;;34.80;92.80;;;;;;5214978;28;20033;-63
2022/09/02 12:21:00;;;;;;;1.48;1.00;;;36.00;93.40;;;;;;5213454;28;20044;-63
2022/09/02 12:23:51;;;;;;;1.30;1.20;;;36.40;90.70;;;;;;5215188;28;20029;-64
2022/09/02 12:26:52;;;;;;;2.92;1.40;;;36.40;91.40;;;;;;5230549;28;20386;-65
2022/09/02 12:29:23;;;;;;;1.55;1.20;;;34.40;90.40;;;;;;5214232;28;20036;-66
2022/09/02 12:32:00;;;;;;;2.83;1.10;;;33.80;91.20;;;;;;5213209;28;21106;-64
2022/09/02 12:34:35;;;;;;;1.02;0.93;;;33.90;92.50;;;;;;5180192;28;20056;-64
2022/09/02 12:37:13;;;;;;;1.15;1.05;;;35.70;91.20;;;;;;5214056;28;20349;-65
2022/09/02 12:39:53;;;;;;;1.17;1.08;;;36.10;90.30;;;;;;5179819;28;20044;-64
2022/09/02 12:42:40;;;;;;;2.05;1.13;;;36.10;90.10;;;;;;5182755;28;20035;-63
2022/09/02 12:45:28;;;;;;;2.38;1.30;;;36.80;90.30;;;;;;5184227;28;20028;-64
2022/09/02 12:48:23;;;;;;;1.75;1.30;;;37.10;87.40;;;;;;5214079;28;20055;-66
2022/09/02 12:51:00;;;;;;;1.30;1.15;;;36.20;86.00;;;;;;5198621;28;20275;-63
2022/09/02 12:53:45;;;;;;;1.00;0.90;;;35.70;87.30;;;;;;5195357;28;20043;-63
2022/09/02 12:56:20;;;;;;;1.20;1.10;;;35.40;87.20;;;;;;5193045;28;20045;-64
2022/09/02 12:58:56;;;;;;;1.15;1.05;;;36.20;84.90;;;;;;5205765;28;20037;-65
2022/09/02 13:02:13;;;;;;;1.08;1.08;;;36.10;85.40;;;;;;5173790;28;20040;-64
2022/09/02 13:05:08;;;;;;;2.55;1.30;;;35.70;87.50;;;;;;5169345;28;20059;-63
2022/09/02 13:08:26;;;;;;;1.88;1.20;;;34.30;87.70;;;;;;5208969;28;20381;-63
2022/09/02 13:11:38;;;;;;;1.20;1.10;;;33.10;87.80;;;;;;5195701;28;20037;-63
2022/09/02 13:14:49;;;;;;;1.80;1.10;;;34.20;90.00;;;;;;5214447;28;20642;-63
2022/09/02 13:17:58;;;;;;;1.52;1.20;;;35.70;86.60;;;;;;5224525;28;20553;-63
2022/09/02 13:20:47;;;;;;;1.80;1.17;;;35.40;85.60;;;;;;5202067;28;20044;-63
2022/09/02 13:24:08;;;;;;;2.10;1.00;;;36.40;85.00;;;;;;5198876;28;20052;-63
2022/09/02 13:27:10;;;;;;;1.30;1.02;;;35.90;84.60;;;;;;5180216;28;20037;-62
2022/09/02 13:30:03;;;;;;;1.60;1.00;;;34.60;84.60;;;;;;5179648;28;20037;-62
2022/09/02 13:32:43;;;;;;;1.20;0.95;;;33.50;86.10;;;;;;5206853;28;20252;-62
2022/09/02 13:35:24;;;;;;;2.30;1.20;;;33.70;86.40;;;;;;5211675;28;20298;-63
2022/09/02 13:38:00;;;;;;;1.40;1.10;;;32.90;85.30;;;;;;5178242;28;20040;-64
2022/09/02 13:40:36;;;;;;;0.85;0.82;;;33.60;85.50;;;;;;5212013;28;20037;-62
2022/09/02 13:43:14;;;;;;;1.77;1.10;;;33.10;85.80;;;;;;5179754;28;20037;-62
2022/09/02 13:45:50;;;;;;;1.10;1.00;;;32.60;85.40;;;;;;5212940;28;20024;-63
2022/09/02 13:48:32;;;;;;;1.50;1.00;;;33.80;85.70;;;;;;5179223;28;20025;-63
2022/09/02 13:51:14;;;;;;;1.60;1.20;;;35.50;85.30;;;;;;5196117;28;20032;-63
2022/09/02 13:53:50;;;;;;;1.00;1.00;;;34.80;84.50;;;;;;5195658;28;20335;-63
2022/09/02 13:56:36;;;;;;;1.88;1.50;;;34.40;85.20;;;;;;5213665;28;20421;-66
2022/09/02 13:59:13;;;;;;;1.10;1.00;;;33.90;85.90;;;;;;5197607;28;20021;-63
2022/09/02 14:01:48;;;;;;;2.47;1.10;;;33.90;86.20;;;;;;5212920;28;20040;-63
2022/09/02 14:04:24;;;;;;;2.58;1.08;;;34.20;85.20;;;;;;5188386;28;20456;-62